sensor_id;sensor_type;location;lat;lon;timestamp;P1;durP1;ratioP1;P2;durP2;ratioP2
29422;SDS011;16399;51.686;8.684;2023-06-22T00:00:13;20.25;;;14.95;;
29422;SDS011;16399;51.686;8.684;2023-06-22T00:03:17;18.77;;;14.53;;
29422;SDS011;16399;51.686;8.684;2023-06-22T00:06:20;19.82;;;15.32;;
29422;SDS011;16399;51.686;8.684;2023-06-22T00:09:22;25.00;;;14.98;;
29422;SDS011;16399;51.686;8.684;2023-06-22T00:12:25;19.48;;;15.08;;
29422;SDS011;16399;51.686;8.684;2023-06-22T00:15:27;22.10;;;14.83;;
29422;SDS011;16399;51.686;8.684;2023-06-22T00:18:29;16.15;;;14.28;;
29422;SDS011;16399;51.686;8.684;2023-06-22T00:21:33;19.05;;;15.20;;
29422;SDS011;16399;51.686;8.684;2023-06-22T00:24:35;22.27;;;15.08;;
29422;SDS011;16399;51.686;8.684;2023-06-22T00:27:37;21.90;;;15.23;;
29422;SDS011;16399;51.686;8.684;2023-06-22T00:30:39;23.77;;;15.85;;
29422;SDS011;16399;51.686;8.684;2023-06-22T00:33:42;17.70;;;15.25;;
29422;SDS011;16399;51.686;8.684;2023-06-22T00:36:44;21.33;;;15.43;;
29422;SDS011;16399;51.686;8.684;2023-06-22T00:39:46;25.30;;;16.02;;
29422;SDS011;16399;51.686;8.684;2023-06-22T00:42:49;18.37;;;14.85;;
29422;SDS011;16399;51.686;8.684;2023-06-22T00:45:51;18.45;;;14.10;;
29422;SDS011;16399;51.686;8.684;2023-06-22T00:48:53;20.72;;;15.45;;
29422;SDS011;16399;51.686;8.684;2023-06-22T00:51:57;20.67;;;14.07;;
29422;SDS011;16399;51.686;8.684;2023-06-22T00:55:00;20.10;;;14.23;;
29422;SDS011;16399;51.686;8.684;2023-06-22T00:58:04;26.10;;;14.80;;
29422;SDS011;16399;51.686;8.684;2023-06-22T01:01:12;20.55;;;14.47;;
29422;SDS011;16399;51.686;8.684;2023-06-22T01:04:15;19.17;;;14.53;;
29422;SDS011;16399;51.686;8.684;2023-06-22T01:07:39;20.02;;;14.78;;
29422;SDS011;16399;51.686;8.684;2023-06-22T01:11:07;20.50;;;15.55;;
29422;SDS011;16399;51.686;8.684;2023-06-22T01:14:15;23.25;;;14.95;;
29422;SDS011;16399;51.686;8.684;2023-06-22T01:17:19;31.93;;;15.08;;
29422;SDS011;16399;51.686;8.684;2023-06-22T01:20:22;22.48;;;16.05;;
29422;SDS011;16399;51.686;8.684;2023-06-22T01:30:07;24.15;;;15.75;;
29422;SDS011;16399;51.686;8.684;2023-06-22T01:33:11;19.33;;;15.37;;
29422;SDS011;16399;51.686;8.684;2023-06-22T01:36:15;22.80;;;15.90;;
29422;SDS011;16399;51.686;8.684;2023-06-22T01:39:19;22.05;;;16.73;;
29422;SDS011;16399;51.686;8.684;2023-06-22T01:42:23;21.23;;;15.98;;
29422;SDS011;16399;51.686;8.684;2023-06-22T01:45:27;19.98;;;15.45;;
29422;SDS011;16399;51.686;8.684;2023-06-22T01:48:30;21.20;;;14.95;;
29422;SDS011;16399;51.686;8.684;2023-06-22T01:51:33;26.20;;;15.08;;
29422;SDS011;16399;51.686;8.684;2023-06-22T01:54:36;18.52;;;15.60;;
29422;SDS011;16399;51.686;8.684;2023-06-22T01:57:39;20.88;;;15.28;;
29422;SDS011;16399;51.686;8.684;2023-06-22T02:00:47;26.95;;;15.13;;
29422;SDS011;16399;51.686;8.684;2023-06-22T02:03:58;20.68;;;15.30;;
29422;SDS011;16399;51.686;8.684;2023-06-22T02:07:09;19.05;;;15.18;;
29422;SDS011;16399;51.686;8.684;2023-06-22T02:10:13;21.57;;;15.30;;
29422;SDS011;16399;51.686;8.684;2023-06-22T02:13:18;18.82;;;14.98;;
29422;SDS011;16399;51.686;8.684;2023-06-22T02:16:20;20.37;;;15.30;;
29422;SDS011;16399;51.686;8.684;2023-06-22T02:19:23;20.27;;;16.20;;
29422;SDS011;16399;51.686;8.684;2023-06-22T02:22:26;21.87;;;16.00;;
29422;SDS011;16399;51.686;8.684;2023-06-22T02:25:28;20.05;;;15.45;;
29422;SDS011;16399;51.686;8.684;2023-06-22T02:28:30;19.17;;;15.80;;
29422;SDS011;16399;51.686;8.684;2023-06-22T02:31:33;18.87;;;15.68;;
29422;SDS011;16399;51.686;8.684;2023-06-22T02:34:35;24.60;;;16.37;;
29422;SDS011;16399;51.686;8.684;2023-06-22T02:37:37;24.50;;;16.05;;
29422;SDS011;16399;51.686;8.684;2023-06-22T02:40:42;25.72;;;15.83;;
29422;SDS011;16399;51.686;8.684;2023-06-22T02:43:44;23.22;;;16.48;;
29422;SDS011;16399;51.686;8.684;2023-06-22T02:46:47;28.67;;;16.23;;
29422;SDS011;16399;51.686;8.684;2023-06-22T02:49:50;25.57;;;16.50;;
29422;SDS011;16399;51.686;8.684;2023-06-22T02:52:53;21.48;;;15.30;;
29422;SDS011;16399;51.686;8.684;2023-06-22T02:55:55;20.05;;;16.45;;
29422;SDS011;16399;51.686;8.684;2023-06-22T02:58:58;21.10;;;16.42;;
29422;SDS011;16399;51.686;8.684;2023-06-22T03:02:02;21.35;;;15.18;;
29422;SDS011;16399;51.686;8.684;2023-06-22T03:05:04;25.08;;;16.35;;
29422;SDS011;16399;51.686;8.684;2023-06-22T03:08:07;20.92;;;15.68;;
29422;SDS011;16399;51.686;8.684;2023-06-22T03:11:09;24.75;;;15.72;;
29422;SDS011;16399;51.686;8.684;2023-06-22T03:14:11;21.15;;;14.68;;
29422;SDS011;16399;51.686;8.684;2023-06-22T03:17:14;23.15;;;15.40;;
29422;SDS011;16399;51.686;8.684;2023-06-22T03:20:16;21.77;;;14.80;;
29422;SDS011;16399;51.686;8.684;2023-06-22T03:23:19;18.48;;;14.30;;
29422;SDS011;16399;51.686;8.684;2023-06-22T03:26:22;22.77;;;14.58;;
29422;SDS011;16399;51.686;8.684;2023-06-22T03:29:25;26.57;;;15.23;;
29422;SDS011;16399;51.686;8.684;2023-06-22T03:32:28;23.92;;;15.38;;
29422;SDS011;16399;51.686;8.684;2023-06-22T03:35:30;21.57;;;14.35;;
29422;SDS011;16399;51.686;8.684;2023-06-22T03:38:32;18.20;;;14.60;;
29422;SDS011;16399;51.686;8.684;2023-06-22T03:41:35;25.77;;;15.95;;
29422;SDS011;16399;51.686;8.684;2023-06-22T03:44:37;17.17;;;15.13;;
29422;SDS011;16399;51.686;8.684;2023-06-22T03:47:39;21.23;;;14.95;;
29422;SDS011;16399;51.686;8.684;2023-06-22T03:50:42;19.15;;;15.25;;
29422;SDS011;16399;51.686;8.684;2023-06-22T03:53:44;23.32;;;14.07;;
29422;SDS011;16399;51.686;8.684;2023-06-22T04:00:10;22.30;;;15.00;;
29422;SDS011;16399;51.686;8.684;2023-06-22T04:03:13;19.48;;;14.85;;
29422;SDS011;16399;51.686;8.684;2023-06-22T04:06:18;17.77;;;14.85;;
29422;SDS011;16399;51.686;8.684;2023-06-22T04:09:20;29.85;;;15.70;;
29422;SDS011;16399;51.686;8.684;2023-06-22T04:12:23;21.68;;;15.05;;
29422;SDS011;16399;51.686;8.684;2023-06-22T04:15:25;20.62;;;15.15;;
29422;SDS011;16399;51.686;8.684;2023-06-22T04:18:27;20.23;;;14.40;;
29422;SDS011;16399;51.686;8.684;2023-06-22T04:21:30;20.85;;;14.93;;
29422;SDS011;16399;51.686;8.684;2023-06-22T04:24:33;20.72;;;14.43;;
29422;SDS011;16399;51.686;8.684;2023-06-22T04:27:35;26.02;;;15.40;;
29422;SDS011;16399;51.686;8.684;2023-06-22T04:30:39;18.65;;;14.50;;
29422;SDS011;16399;51.686;8.684;2023-06-22T04:33:43;22.15;;;14.45;;
29422;SDS011;16399;51.686;8.684;2023-06-22T04:36:45;18.12;;;13.95;;
29422;SDS011;16399;51.686;8.684;2023-06-22T04:39:47;18.77;;;13.88;;
29422;SDS011;16399;51.686;8.684;2023-06-22T04:42:50;19.77;;;13.70;;
29422;SDS011;16399;51.686;8.684;2023-06-22T04:45:56;23.32;;;14.20;;
29422;SDS011;16399;51.686;8.684;2023-06-22T04:49:00;21.52;;;14.07;;
29422;SDS011;16399;51.686;8.684;2023-06-22T04:52:03;18.75;;;13.68;;
29422;SDS011;16399;51.686;8.684;2023-06-22T04:55:07;22.27;;;14.58;;
29422;SDS011;16399;51.686;8.684;2023-06-22T04:58:09;19.92;;;14.78;;
29422;SDS011;16399;51.686;8.684;2023-06-22T05:01:13;18.80;;;14.28;;
29422;SDS011;16399;51.686;8.684;2023-06-22T05:04:15;24.52;;;14.55;;
29422;SDS011;16399;51.686;8.684;2023-06-22T05:07:18;22.70;;;13.85;;
29422;SDS011;16399;51.686;8.684;2023-06-22T05:10:20;22.07;;;13.62;;
29422;SDS011;16399;51.686;8.684;2023-06-22T05:13:22;20.17;;;13.70;;
29422;SDS011;16399;51.686;8.684;2023-06-22T05:16:26;21.50;;;14.18;;
29422;SDS011;16399;51.686;8.684;2023-06-22T05:19:28;19.37;;;13.28;;
29422;SDS011;16399;51.686;8.684;2023-06-22T05:22:32;24.18;;;13.62;;
29422;SDS011;16399;51.686;8.684;2023-06-22T05:25:35;18.10;;;13.58;;
29422;SDS011;16399;51.686;8.684;2023-06-22T05:28:37;17.42;;;13.10;;
29422;SDS011;16399;51.686;8.684;2023-06-22T05:31:39;22.07;;;13.28;;
29422;SDS011;16399;51.686;8.684;2023-06-22T05:34:42;18.20;;;13.80;;
29422;SDS011;16399;51.686;8.684;2023-06-22T05:37:44;19.65;;;13.28;;
29422;SDS011;16399;51.686;8.684;2023-06-22T05:40:46;20.80;;;12.88;;
29422;SDS011;16399;51.686;8.684;2023-06-22T05:43:49;18.12;;;12.23;;
29422;SDS011;16399;51.686;8.684;2023-06-22T05:46:51;17.37;;;11.40;;
29422;SDS011;16399;51.686;8.684;2023-06-22T05:49:53;16.42;;;12.35;;
29422;SDS011;16399;51.686;8.684;2023-06-22T05:52:56;18.20;;;11.05;;
29422;SDS011;16399;51.686;8.684;2023-06-22T05:55:58;17.92;;;11.35;;
29422;SDS011;16399;51.686;8.684;2023-06-22T05:59:00;16.50;;;11.83;;
29422;SDS011;16399;51.686;8.684;2023-06-22T06:02:03;15.23;;;11.63;;
29422;SDS011;16399;51.686;8.684;2023-06-22T06:05:05;16.02;;;11.70;;
29422;SDS011;16399;51.686;8.684;2023-06-22T06:08:08;20.02;;;12.43;;
29422;SDS011;16399;51.686;8.684;2023-06-22T06:11:11;14.70;;;12.37;;
29422;SDS011;16399;51.686;8.684;2023-06-22T06:14:14;18.00;;;12.53;;
29422;SDS011;16399;51.686;8.684;2023-06-22T06:17:17;19.12;;;12.30;;
29422;SDS011;16399;51.686;8.684;2023-06-22T06:20:20;15.13;;;11.63;;
29422;SDS011;16399;51.686;8.684;2023-06-22T06:26:26;13.80;;;11.03;;
29422;SDS011;16399;51.686;8.684;2023-06-22T06:29:32;14.35;;;10.93;;
29422;SDS011;16399;51.686;8.684;2023-06-22T06:32:35;17.62;;;11.28;;
29422;SDS011;16399;51.686;8.684;2023-06-22T06:35:38;15.20;;;10.58;;
29422;SDS011;16399;51.686;8.684;2023-06-22T06:38:40;13.18;;;10.50;;
29422;SDS011;16399;51.686;8.684;2023-06-22T06:41:42;13.65;;;10.78;;
29422;SDS011;16399;51.686;8.684;2023-06-22T06:44:45;12.88;;;10.95;;
29422;SDS011;16399;51.686;8.684;2023-06-22T06:47:47;12.80;;;10.90;;
29422;SDS011;16399;51.686;8.684;2023-06-22T06:50:50;14.50;;;10.75;;
29422;SDS011;16399;51.686;8.684;2023-06-22T06:53:52;15.53;;;11.08;;
29422;SDS011;16399;51.686;8.684;2023-06-22T06:56:54;14.05;;;10.55;;
29422;SDS011;16399;51.686;8.684;2023-06-22T06:59:57;13.43;;;11.45;;
29422;SDS011;16399;51.686;8.684;2023-06-22T07:02:59;14.33;;;10.90;;
29422;SDS011;16399;51.686;8.684;2023-06-22T07:06:01;14.78;;;11.43;;
29422;SDS011;16399;51.686;8.684;2023-06-22T07:09:04;14.63;;;12.53;;
29422;SDS011;16399;51.686;8.684;2023-06-22T07:12:06;15.95;;;11.50;;
29422;SDS011;16399;51.686;8.684;2023-06-22T07:15:09;14.78;;;11.80;;
29422;SDS011;16399;51.686;8.684;2023-06-22T07:18:13;15.23;;;11.67;;
29422;SDS011;16399;51.686;8.684;2023-06-22T07:21:15;16.77;;;11.50;;
29422;SDS011;16399;51.686;8.684;2023-06-22T07:24:17;18.73;;;11.00;;
29422;SDS011;16399;51.686;8.684;2023-06-22T07:27:20;11.63;;;9.78;;
29422;SDS011;16399;51.686;8.684;2023-06-22T07:30:22;12.68;;;10.15;;
29422;SDS011;16399;51.686;8.684;2023-06-22T07:33:25;14.60;;;9.58;;
29422;SDS011;16399;51.686;8.684;2023-06-22T07:36:28;14.68;;;9.40;;
29422;SDS011;16399;51.686;8.684;2023-06-22T07:39:30;12.23;;;9.45;;
29422;SDS011;16399;51.686;8.684;2023-06-22T07:42:33;12.30;;;9.53;;
29422;SDS011;16399;51.686;8.684;2023-06-22T07:45:35;12.90;;;9.30;;
29422;SDS011;16399;51.686;8.684;2023-06-22T07:48:40;10.93;;;9.10;;
29422;SDS011;16399;51.686;8.684;2023-06-22T07:51:44;11.63;;;9.00;;
29422;SDS011;16399;51.686;8.684;2023-06-22T07:54:47;11.85;;;8.58;;
29422;SDS011;16399;51.686;8.684;2023-06-22T07:57:49;14.18;;;9.08;;
29422;SDS011;16399;51.686;8.684;2023-06-22T08:00:52;10.05;;;7.70;;
29422;SDS011;16399;51.686;8.684;2023-06-22T08:03:54;10.13;;;7.78;;
29422;SDS011;16399;51.686;8.684;2023-06-22T08:07:02;10.28;;;7.70;;
29422;SDS011;16399;51.686;8.684;2023-06-22T08:10:05;9.28;;;7.67;;
29422;SDS011;16399;51.686;8.684;2023-06-22T08:13:09;10.70;;;7.22;;
29422;SDS011;16399;51.686;8.684;2023-06-22T08:16:12;9.48;;;7.05;;
29422;SDS011;16399;51.686;8.684;2023-06-22T08:19:15;10.55;;;7.22;;
29422;SDS011;16399;51.686;8.684;2023-06-22T08:22:18;9.50;;;6.90;;
29422;SDS011;16399;51.686;8.684;2023-06-22T08:25:20;10.98;;;6.85;;
29422;SDS011;16399;51.686;8.684;2023-06-22T08:28:22;8.95;;;6.65;;
29422;SDS011;16399;51.686;8.684;2023-06-22T08:31:25;9.03;;;5.78;;
29422;SDS011;16399;51.686;8.684;2023-06-22T08:34:27;7.92;;;6.05;;
29422;SDS011;16399;51.686;8.684;2023-06-22T08:37:30;7.58;;;5.90;;
29422;SDS011;16399;51.686;8.684;2023-06-22T08:40:34;8.10;;;5.67;;
29422;SDS011;16399;51.686;8.684;2023-06-22T08:43:36;6.97;;;5.05;;
29422;SDS011;16399;51.686;8.684;2023-06-22T08:46:38;6.75;;;4.90;;
29422;SDS011;16399;51.686;8.684;2023-06-22T08:49:41;6.83;;;4.97;;
29422;SDS011;16399;51.686;8.684;2023-06-22T08:52:43;7.20;;;4.97;;
29422;SDS011;16399;51.686;8.684;2023-06-22T08:55:46;7.55;;;5.17;;
29422;SDS011;16399;51.686;8.684;2023-06-22T08:58:48;7.47;;;5.83;;
29422;SDS011;16399;51.686;8.684;2023-06-22T09:01:50;7.55;;;5.28;;
29422;SDS011;16399;51.686;8.684;2023-06-22T09:04:53;6.15;;;5.08;;
29422;SDS011;16399;51.686;8.684;2023-06-22T09:07:56;7.55;;;5.75;;
29422;SDS011;16399;51.686;8.684;2023-06-22T09:10:59;9.57;;;5.50;;
29422;SDS011;16399;51.686;8.684;2023-06-22T09:14:01;6.95;;;5.62;;
29422;SDS011;16399;51.686;8.684;2023-06-22T09:17:04;6.40;;;5.45;;
29422;SDS011;16399;51.686;8.684;2023-06-22T09:20:06;6.42;;;5.50;;
29422;SDS011;16399;51.686;8.684;2023-06-22T09:23:11;9.00;;;5.67;;
29422;SDS011;16399;51.686;8.684;2023-06-22T09:26:13;6.85;;;5.62;;
29422;SDS011;16399;51.686;8.684;2023-06-22T09:29:15;8.38;;;5.22;;
29422;SDS011;16399;51.686;8.684;2023-06-22T09:32:18;7.75;;;5.60;;
29422;SDS011;16399;51.686;8.684;2023-06-22T09:35:20;7.60;;;5.80;;
29422;SDS011;16399;51.686;8.684;2023-06-22T09:38:22;6.97;;;5.55;;
29422;SDS011;16399;51.686;8.684;2023-06-22T09:41:25;7.17;;;5.42;;
29422;SDS011;16399;51.686;8.684;2023-06-22T09:44:27;7.90;;;5.70;;
29422;SDS011;16399;51.686;8.684;2023-06-22T09:47:29;7.78;;;5.67;;
29422;SDS011;16399;51.686;8.684;2023-06-22T09:50:31;7.08;;;5.40;;
29422;SDS011;16399;51.686;8.684;2023-06-22T09:53:34;7.70;;;5.50;;
29422;SDS011;16399;51.686;8.684;2023-06-22T09:56:36;7.10;;;5.22;;
29422;SDS011;16399;51.686;8.684;2023-06-22T09:59:38;7.25;;;5.67;;
29422;SDS011;16399;51.686;8.684;2023-06-22T10:02:41;7.00;;;5.60;;
29422;SDS011;16399;51.686;8.684;2023-06-22T10:05:43;11.48;;;5.53;;
29422;SDS011;16399;51.686;8.684;2023-06-22T10:08:45;8.05;;;5.60;;
29422;SDS011;16399;51.686;8.684;2023-06-22T10:11:49;8.20;;;6.10;;
29422;SDS011;16399;51.686;8.684;2023-06-22T10:14:51;8.58;;;5.60;;
29422;SDS011;16399;51.686;8.684;2023-06-22T10:17:53;9.03;;;5.90;;
29422;SDS011;16399;51.686;8.684;2023-06-22T10:20:56;8.30;;;5.87;;
29422;SDS011;16399;51.686;8.684;2023-06-22T10:23:58;8.43;;;5.72;;
29422;SDS011;16399;51.686;8.684;2023-06-22T10:27:02;10.32;;;6.45;;
29422;SDS011;16399;51.686;8.684;2023-06-22T10:30:05;10.68;;;6.30;;
29422;SDS011;16399;51.686;8.684;2023-06-22T10:33:11;7.95;;;6.00;;
29422;SDS011;16399;51.686;8.684;2023-06-22T10:36:14;7.75;;;5.45;;
29422;SDS011;16399;51.686;8.684;2023-06-22T10:39:16;12.33;;;6.20;;
29422;SDS011;16399;51.686;8.684;2023-06-22T10:42:18;7.28;;;5.97;;
29422;SDS011;16399;51.686;8.684;2023-06-22T10:45:21;7.67;;;6.17;;
29422;SDS011;16399;51.686;8.684;2023-06-22T10:48:23;10.20;;;7.12;;
29422;SDS011;16399;51.686;8.684;2023-06-22T10:51:25;10.82;;;7.05;;
29422;SDS011;16399;51.686;8.684;2023-06-22T10:54:28;8.08;;;6.55;;
29422;SDS011;16399;51.686;8.684;2023-06-22T10:57:31;8.88;;;6.70;;
29422;SDS011;16399;51.686;8.684;2023-06-22T11:00:33;9.83;;;6.40;;
29422;SDS011;16399;51.686;8.684;2023-06-22T11:03:35;9.85;;;6.92;;
29422;SDS011;16399;51.686;8.684;2023-06-22T11:06:38;8.35;;;6.95;;
29422;SDS011;16399;51.686;8.684;2023-06-22T11:09:40;14.78;;;7.58;;
29422;SDS011;16399;51.686;8.684;2023-06-22T11:12:44;12.65;;;7.22;;
29422;SDS011;16399;51.686;8.684;2023-06-22T11:15:46;8.75;;;6.95;;
29422;SDS011;16399;51.686;8.684;2023-06-22T11:18:48;8.43;;;6.17;;
29422;SDS011;16399;51.686;8.684;2023-06-22T11:21:50;9.53;;;6.10;;
29422;SDS011;16399;51.686;8.684;2023-06-22T11:24:53;8.85;;;6.20;;
29422;SDS011;16399;51.686;8.684;2023-06-22T11:27:55;9.48;;;6.42;;
29422;SDS011;16399;51.686;8.684;2023-06-22T11:30:57;7.30;;;5.80;;
29422;SDS011;16399;51.686;8.684;2023-06-22T11:34:00;9.30;;;6.17;;
29422;SDS011;16399;51.686;8.684;2023-06-22T11:37:02;6.97;;;5.65;;
29422;SDS011;16399;51.686;8.684;2023-06-22T11:40:05;7.78;;;6.03;;
29422;SDS011;16399;51.686;8.684;2023-06-22T11:43:09;7.78;;;6.60;;
29422;SDS011;16399;51.686;8.684;2023-06-22T11:46:12;7.83;;;6.10;;
29422;SDS011;16399;51.686;8.684;2023-06-22T11:49:14;7.47;;;6.28;;
29422;SDS011;16399;51.686;8.684;2023-06-22T11:52:16;10.82;;;7.17;;
29422;SDS011;16399;51.686;8.684;2023-06-22T11:55:19;10.90;;;6.70;;
29422;SDS011;16399;51.686;8.684;2023-06-22T11:58:22;9.55;;;7.28;;
29422;SDS011;16399;51.686;8.684;2023-06-22T12:01:24;9.28;;;6.80;;
29422;SDS011;16399;51.686;8.684;2023-06-22T12:04:26;12.10;;;7.25;;
29422;SDS011;16399;51.686;8.684;2023-06-22T12:07:29;11.93;;;7.70;;
29422;SDS011;16399;51.686;8.684;2023-06-22T12:10:31;10.03;;;7.50;;
29422;SDS011;16399;51.686;8.684;2023-06-22T12:13:33;14.07;;;7.58;;
29422;SDS011;16399;51.686;8.684;2023-06-22T12:16:35;11.43;;;8.03;;
29422;SDS011;16399;51.686;8.684;2023-06-22T12:19:38;11.28;;;7.87;;
29422;SDS011;16399;51.686;8.684;2023-06-22T12:22:40;9.95;;;7.40;;
29422;SDS011;16399;51.686;8.684;2023-06-22T12:25:44;10.55;;;7.53;;
29422;SDS011;16399;51.686;8.684;2023-06-22T12:28:47;10.47;;;7.83;;
29422;SDS011;16399;51.686;8.684;2023-06-22T12:31:49;11.93;;;8.48;;
29422;SDS011;16399;51.686;8.684;2023-06-22T12:34:52;17.95;;;9.20;;
29422;SDS011;16399;51.686;8.684;2023-06-22T12:37:54;13.05;;;9.65;;
29422;SDS011;16399;51.686;8.684;2023-06-22T12:40:56;14.60;;;9.58;;
29422;SDS011;16399;51.686;8.684;2023-06-22T12:43:59;14.25;;;9.70;;
29422;SDS011;16399;51.686;8.684;2023-06-22T12:47:01;14.18;;;10.70;;
29422;SDS011;16399;51.686;8.684;2023-06-22T12:50:03;14.15;;;10.63;;
29422;SDS011;16399;51.686;8.684;2023-06-22T12:53:06;17.05;;;11.08;;
29422;SDS011;16399;51.686;8.684;2023-06-22T12:56:08;15.20;;;11.78;;
29422;SDS011;16399;51.686;8.684;2023-06-22T12:59:11;15.38;;;11.95;;
29422;SDS011;16399;51.686;8.684;2023-06-22T13:02:13;16.05;;;11.45;;
29422;SDS011;16399;51.686;8.684;2023-06-22T13:05:15;15.58;;;11.93;;
29422;SDS011;16399;51.686;8.684;2023-06-22T13:08:18;21.27;;;13.18;;
29422;SDS011;16399;51.686;8.684;2023-06-22T13:11:20;18.07;;;13.90;;
29422;SDS011;16399;51.686;8.684;2023-06-22T13:14:22;18.05;;;15.00;;
29422;SDS011;16399;51.686;8.684;2023-06-22T13:17:25;16.48;;;13.55;;
29422;SDS011;16399;51.686;8.684;2023-06-22T13:20:28;19.25;;;14.23;;
29422;SDS011;16399;51.686;8.684;2023-06-22T13:23:31;17.65;;;14.10;;
29422;SDS011;16399;51.686;8.684;2023-06-22T13:26:34;20.00;;;15.13;;
29422;SDS011;16399;51.686;8.684;2023-06-22T13:29:36;20.00;;;14.55;;
29422;SDS011;16399;51.686;8.684;2023-06-22T13:32:39;26.40;;;14.95;;
29422;SDS011;16399;51.686;8.684;2023-06-22T13:35:42;21.42;;;15.03;;
29422;SDS011;16399;51.686;8.684;2023-06-22T13:38:45;21.07;;;14.93;;
29422;SDS011;16399;51.686;8.684;2023-06-22T13:41:47;19.32;;;14.33;;
29422;SDS011;16399;51.686;8.684;2023-06-22T13:44:49;21.05;;;15.58;;
29422;SDS011;16399;51.686;8.684;2023-06-22T13:47:52;18.07;;;14.60;;
29422;SDS011;16399;51.686;8.684;2023-06-22T13:50:54;21.60;;;15.15;;
29422;SDS011;16399;51.686;8.684;2023-06-22T13:53:57;21.80;;;15.78;;
29422;SDS011;16399;51.686;8.684;2023-06-22T13:57:00;28.35;;;17.15;;
29422;SDS011;16399;51.686;8.684;2023-06-22T14:00:02;23.50;;;16.77;;
29422;SDS011;16399;51.686;8.684;2023-06-22T14:03:10;21.97;;;15.80;;
29422;SDS011;16399;51.686;8.684;2023-06-22T14:06:12;22.17;;;16.05;;
29422;SDS011;16399;51.686;8.684;2023-06-22T14:09:14;18.50;;;15.88;;
29422;SDS011;16399;51.686;8.684;2023-06-22T14:12:17;22.35;;;16.10;;
29422;SDS011;16399;51.686;8.684;2023-06-22T14:15:19;21.15;;;15.55;;
29422;SDS011;16399;51.686;8.684;2023-06-22T14:18:22;20.82;;;16.48;;
29422;SDS011;16399;51.686;8.684;2023-06-22T14:21:25;19.57;;;16.62;;
29422;SDS011;16399;51.686;8.684;2023-06-22T14:24:27;22.50;;;16.32;;
29422;SDS011;16399;51.686;8.684;2023-06-22T14:27:30;21.33;;;16.82;;
29422;SDS011;16399;51.686;8.684;2023-06-22T14:30:32;20.08;;;15.18;;
29422;SDS011;16399;51.686;8.684;2023-06-22T14:33:35;21.17;;;15.95;;
29422;SDS011;16399;51.686;8.684;2023-06-22T14:36:37;21.12;;;16.07;;
29422;SDS011;16399;51.686;8.684;2023-06-22T14:39:39;23.05;;;16.37;;
29422;SDS011;16399;51.686;8.684;2023-06-22T14:42:42;21.30;;;15.65;;
29422;SDS011;16399;51.686;8.684;2023-06-22T14:45:44;24.45;;;15.90;;
29422;SDS011;16399;51.686;8.684;2023-06-22T14:48:46;27.05;;;16.75;;
29422;SDS011;16399;51.686;8.684;2023-06-22T14:51:49;23.73;;;18.45;;
29422;SDS011;16399;51.686;8.684;2023-06-22T14:54:51;26.40;;;16.85;;
29422;SDS011;16399;51.686;8.684;2023-06-22T14:57:53;23.62;;;16.60;;
29422;SDS011;16399;51.686;8.684;2023-06-22T15:00:56;23.47;;;17.37;;
29422;SDS011;16399;51.686;8.684;2023-06-22T15:03:58;24.35;;;18.17;;
29422;SDS011;16399;51.686;8.684;2023-06-22T15:07:00;23.83;;;17.67;;
29422;SDS011;16399;51.686;8.684;2023-06-22T15:10:03;27.20;;;18.92;;
29422;SDS011;16399;51.686;8.684;2023-06-22T15:13:06;26.20;;;19.35;;
29422;SDS011;16399;51.686;8.684;2023-06-22T15:16:08;28.98;;;19.07;;
29422;SDS011;16399;51.686;8.684;2023-06-22T15:19:10;24.47;;;19.50;;
29422;SDS011;16399;51.686;8.684;2023-06-22T15:22:13;25.10;;;18.95;;
29422;SDS011;16399;51.686;8.684;2023-06-22T15:25:17;25.97;;;18.52;;
29422;SDS011;16399;51.686;8.684;2023-06-22T15:28:19;24.30;;;18.77;;
29422;SDS011;16399;51.686;8.684;2023-06-22T15:31:24;27.93;;;20.40;;
29422;SDS011;16399;51.686;8.684;2023-06-22T15:34:28;24.03;;;19.47;;
29422;SDS011;16399;51.686;8.684;2023-06-22T15:37:30;26.93;;;18.73;;
29422;SDS011;16399;51.686;8.684;2023-06-22T15:40:33;23.10;;;18.05;;
29422;SDS011;16399;51.686;8.684;2023-06-22T15:43:35;23.52;;;19.23;;
29422;SDS011;16399;51.686;8.684;2023-06-22T15:46:37;23.60;;;18.15;;
29422;SDS011;16399;51.686;8.684;2023-06-22T15:49:39;23.52;;;18.48;;
29422;SDS011;16399;51.686;8.684;2023-06-22T15:52:42;24.32;;;18.98;;
29422;SDS011;16399;51.686;8.684;2023-06-22T15:55:46;23.85;;;19.73;;
29422;SDS011;16399;51.686;8.684;2023-06-22T15:58:48;23.73;;;18.48;;
29422;SDS011;16399;51.686;8.684;2023-06-22T16:01:51;22.27;;;18.10;;
29422;SDS011;16399;51.686;8.684;2023-06-22T16:04:53;24.50;;;18.50;;
29422;SDS011;16399;51.686;8.684;2023-06-22T16:07:57;21.40;;;17.73;;
29422;SDS011;16399;51.686;8.684;2023-06-22T16:10:59;22.27;;;18.32;;
29422;SDS011;16399;51.686;8.684;2023-06-22T16:14:02;25.23;;;18.73;;
29422;SDS011;16399;51.686;8.684;2023-06-22T16:17:04;23.38;;;18.90;;
29422;SDS011;16399;51.686;8.684;2023-06-22T16:20:07;22.13;;;18.30;;
29422;SDS011;16399;51.686;8.684;2023-06-22T16:23:10;22.20;;;18.55;;
29422;SDS011;16399;51.686;8.684;2023-06-22T16:26:13;22.13;;;18.17;;
29422;SDS011;16399;51.686;8.684;2023-06-22T16:29:15;24.72;;;18.42;;
29422;SDS011;16399;51.686;8.684;2023-06-22T16:32:17;23.87;;;19.02;;
29422;SDS011;16399;51.686;8.684;2023-06-22T16:35:22;22.82;;;19.12;;
29422;SDS011;16399;51.686;8.684;2023-06-22T16:38:25;22.35;;;18.37;;
29422;SDS011;16399;51.686;8.684;2023-06-22T16:41:27;23.77;;;17.77;;
29422;SDS011;16399;51.686;8.684;2023-06-22T16:44:31;26.47;;;19.47;;
29422;SDS011;16399;51.686;8.684;2023-06-22T16:47:35;22.10;;;19.45;;
29422;SDS011;16399;51.686;8.684;2023-06-22T16:50:37;25.57;;;20.92;;
29422;SDS011;16399;51.686;8.684;2023-06-22T16:53:39;25.05;;;19.42;;
29422;SDS011;16399;51.686;8.684;2023-06-22T16:56:43;23.00;;;19.15;;
29422;SDS011;16399;51.686;8.684;2023-06-22T16:59:47;24.47;;;20.17;;
29422;SDS011;16399;51.686;8.684;2023-06-22T17:02:51;27.35;;;20.45;;
29422;SDS011;16399;51.686;8.684;2023-06-22T17:05:55;25.20;;;20.47;;
29422;SDS011;16399;51.686;8.684;2023-06-22T17:09:02;26.87;;;19.87;;
29422;SDS011;16399;51.686;8.684;2023-06-22T17:12:05;25.85;;;16.07;;
29422;SDS011;16399;51.686;8.684;2023-06-22T17:15:09;16.77;;;13.25;;
29422;SDS011;16399;51.686;8.684;2023-06-22T17:18:12;13.88;;;10.58;;
29422;SDS011;16399;51.686;8.684;2023-06-22T17:21:22;12.88;;;8.78;;
29422;SDS011;16399;51.686;8.684;2023-06-22T17:24:24;13.75;;;8.65;;
29422;SDS011;16399;51.686;8.684;2023-06-22T17:27:28;13.72;;;7.55;;
29422;SDS011;16399;51.686;8.684;2023-06-22T17:30:30;13.98;;;9.15;;
29422;SDS011;16399;51.686;8.684;2023-06-22T17:33:32;11.05;;;8.10;;
29422;SDS011;16399;51.686;8.684;2023-06-22T17:36:44;11.83;;;8.15;;
29422;SDS011;16399;51.686;8.684;2023-06-22T17:39:51;16.67;;;9.63;;
29422;SDS011;16399;51.686;8.684;2023-06-22T17:43:03;14.23;;;10.00;;
29422;SDS011;16399;51.686;8.684;2023-06-22T17:46:07;16.85;;;10.95;;
29422;SDS011;16399;51.686;8.684;2023-06-22T17:49:10;18.20;;;11.95;;
29422;SDS011;16399;51.686;8.684;2023-06-22T17:52:18;16.73;;;12.85;;
29422;SDS011;16399;51.686;8.684;2023-06-22T17:55:25;16.82;;;12.70;;
29422;SDS011;16399;51.686;8.684;2023-06-22T17:58:24;21.45;;;13.32;;
29422;SDS011;16399;51.686;8.684;2023-06-22T18:01:37;20.55;;;15.48;;
29422;SDS011;16399;51.686;8.684;2023-06-22T18:04:39;19.60;;;13.55;;
29422;SDS011;16399;51.686;8.684;2023-06-22T18:07:43;15.48;;;11.63;;
29422;SDS011;16399;51.686;8.684;2023-06-22T18:10:46;17.32;;;11.95;;